sensor_id;sensor_type;location;lat;lon;timestamp;P1;durP1;ratioP1;P2;durP2;ratioP2
51332;SDS011;37417;48.118;11.734;2023-03-23T00:02:23;2.47;;;1.92;;
51332;SDS011;37417;48.118;11.734;2023-03-23T00:04:52;3.92;;;2.00;;
51332;SDS011;37417;48.118;11.734;2023-03-23T00:07:18;3.45;;;2.10;;
51332;SDS011;37417;48.118;11.734;2023-03-23T00:09:47;3.13;;;2.15;;
51332;SDS011;37417;48.118;11.734;2023-03-23T00:12:27;2.30;;;1.80;;
51332;SDS011;37417;48.118;11.734;2023-03-23T00:15:00;2.70;;;1.92;;
51332;SDS011;37417;48.118;11.734;2023-03-23T00:17:27;4.78;;;1.70;;
51332;SDS011;37417;48.118;11.734;2023-03-23T00:19:53;2.15;;;1.55;;
51332;SDS011;37417;48.118;11.734;2023-03-23T00:22:18;2.85;;;1.33;;
51332;SDS011;37417;48.118;11.734;2023-03-23T00:24:45;3.30;;;1.70;;
51332;SDS011;37417;48.118;11.734;2023-03-23T00:27:11;2.17;;;1.40;;
51332;SDS011;37417;48.118;11.734;2023-03-23T00:29:38;2.35;;;1.88;;
51332;SDS011;37417;48.118;11.734;2023-03-23T00:32:05;3.40;;;1.98;;
51332;SDS011;37417;48.118;11.734;2023-03-23T00:34:30;2.75;;;1.48;;
51332;SDS011;37417;48.118;11.734;2023-03-23T00:36:58;2.50;;;1.70;;
51332;SDS011;37417;48.118;11.734;2023-03-23T00:39:25;4.35;;;2.08;;
51332;SDS011;37417;48.118;11.734;2023-03-23T00:41:52;1.77;;;1.45;;
51332;SDS011;37417;48.118;11.734;2023-03-23T00:44:18;2.97;;;1.70;;
51332;SDS011;37417;48.118;11.734;2023-03-23T00:46:44;1.15;;;1.05;;
51332;SDS011;37417;48.118;11.734;2023-03-23T00:49:17;1.60;;;1.27;;
51332;SDS011;37417;48.118;11.734;2023-03-23T00:51:45;2.33;;;1.45;;
51332;SDS011;37417;48.118;11.734;2023-03-23T00:54:10;2.40;;;1.80;;
51332;SDS011;37417;48.118;11.734;2023-03-23T00:56:36;5.22;;;2.17;;
51332;SDS011;37417;48.118;11.734;2023-03-23T00:59:04;2.92;;;1.73;;
51332;SDS011;37417;48.118;11.734;2023-03-23T01:01:30;5.55;;;1.80;;
51332;SDS011;37417;48.118;11.734;2023-03-23T01:03:55;1.55;;;1.40;;
51332;SDS011;37417;48.118;11.734;2023-03-23T01:06:26;4.10;;;1.60;;
51332;SDS011;37417;48.118;11.734;2023-03-23T01:08:55;1.52;;;1.30;;
51332;SDS011;37417;48.118;11.734;2023-03-23T01:11:21;4.50;;;1.42;;
51332;SDS011;37417;48.118;11.734;2023-03-23T01:13:47;3.88;;;1.33;;
51332;SDS011;37417;48.118;11.734;2023-03-23T01:16:12;2.08;;;1.13;;
51332;SDS011;37417;48.118;11.734;2023-03-23T01:18:38;2.60;;;1.58;;
51332;SDS011;37417;48.118;11.734;2023-03-23T01:21:05;2.38;;;1.38;;
51332;SDS011;37417;48.118;11.734;2023-03-23T01:23:32;2.58;;;1.23;;
51332;SDS011;37417;48.118;11.734;2023-03-23T01:26:02;2.17;;;1.33;;
51332;SDS011;37417;48.118;11.734;2023-03-23T01:28:32;2.90;;;1.40;;
51332;SDS011;37417;48.118;11.734;2023-03-23T01:31:01;2.00;;;1.42;;
51332;SDS011;37417;48.118;11.734;2023-03-23T01:33:28;4.25;;;1.38;;
51332;SDS011;37417;48.118;11.734;2023-03-23T01:35:54;7.30;;;1.77;;
51332;SDS011;37417;48.118;11.734;2023-03-23T01:38:21;1.40;;;0.82;;
51332;SDS011;37417;48.118;11.734;2023-03-23T01:40:46;1.80;;;1.30;;
51332;SDS011;37417;48.118;11.734;2023-03-23T01:43:13;4.00;;;1.48;;
51332;SDS011;37417;48.118;11.734;2023-03-23T01:45:40;4.18;;;1.50;;
51332;SDS011;37417;48.118;11.734;2023-03-23T01:48:16;1.30;;;1.20;;
51332;SDS011;37417;48.118;11.734;2023-03-23T01:50:50;1.17;;;1.02;;
51332;SDS011;37417;48.118;11.734;2023-03-23T01:53:20;3.20;;;1.42;;
51332;SDS011;37417;48.118;11.734;2023-03-23T01:55:49;1.52;;;1.17;;
51332;SDS011;37417;48.118;11.734;2023-03-23T01:58:19;3.55;;;1.00;;
51332;SDS011;37417;48.118;11.734;2023-03-23T02:00:50;2.97;;;1.40;;
51332;SDS011;37417;48.118;11.734;2023-03-23T02:03:16;6.32;;;1.33;;
51332;SDS011;37417;48.118;11.734;2023-03-23T02:05:42;2.30;;;1.30;;
51332;SDS011;37417;48.118;11.734;2023-03-23T02:08:08;1.38;;;1.13;;
51332;SDS011;37417;48.118;11.734;2023-03-23T02:10:36;1.73;;;1.55;;
51332;SDS011;37417;48.118;11.734;2023-03-23T02:13:02;2.72;;;1.63;;
51332;SDS011;37417;48.118;11.734;2023-03-23T02:16:04;5.25;;;1.38;;
51332;SDS011;37417;48.118;11.734;2023-03-23T02:26:33;2.03;;;1.40;;
51332;SDS011;37417;48.118;11.734;2023-03-23T02:34:27;3.00;;;1.90;;
51332;SDS011;37417;48.118;11.734;2023-03-23T02:36:59;1.27;;;1.10;;
51332;SDS011;37417;48.118;11.734;2023-03-23T02:39:37;2.05;;;1.50;;
51332;SDS011;37417;48.118;11.734;2023-03-23T02:42:09;1.70;;;1.50;;
51332;SDS011;37417;48.118;11.734;2023-03-23T02:44:37;1.55;;;1.23;;
51332;SDS011;37417;48.118;11.734;2023-03-23T02:47:07;1.88;;;1.40;;
51332;SDS011;37417;48.118;11.734;2023-03-23T02:49:37;3.25;;;1.80;;
51332;SDS011;37417;48.118;11.734;2023-03-23T02:52:10;5.85;;;1.45;;
51332;SDS011;37417;48.118;11.734;2023-03-23T02:54:40;2.60;;;1.63;;
51332;SDS011;37417;48.118;11.734;2023-03-23T02:57:09;3.20;;;1.42;;
51332;SDS011;37417;48.118;11.734;2023-03-23T02:59:35;1.58;;;1.42;;
51332;SDS011;37417;48.118;11.734;2023-03-23T03:02:02;1.98;;;1.45;;
51332;SDS011;37417;48.118;11.734;2023-03-23T03:04:53;4.50;;;1.75;;
51332;SDS011;37417;48.118;11.734;2023-03-23T03:08:29;1.88;;;1.50;;
51332;SDS011;37417;48.118;11.734;2023-03-23T03:10:35;1.67;;;1.58;;
51332;SDS011;37417;48.118;11.734;2023-03-23T03:15:52;1.58;;;1.33;;
51332;SDS011;37417;48.118;11.734;2023-03-23T03:18:25;3.58;;;1.60;;
51332;SDS011;37417;48.118;11.734;2023-03-23T03:20:56;2.13;;;1.50;;
51332;SDS011;37417;48.118;11.734;2023-03-23T03:25:54;3.92;;;1.83;;
51332;SDS011;37417;48.118;11.734;2023-03-23T03:28:22;3.30;;;1.35;;
51332;SDS011;37417;48.118;11.734;2023-03-23T03:30:51;2.08;;;1.77;;
51332;SDS011;37417;48.118;11.734;2023-03-23T03:33:19;2.67;;;1.70;;
51332;SDS011;37417;48.118;11.734;2023-03-23T03:35:50;4.57;;;1.45;;
51332;SDS011;37417;48.118;11.734;2023-03-23T03:38:18;2.90;;;1.60;;
51332;SDS011;37417;48.118;11.734;2023-03-23T03:40:43;1.60;;;1.50;;
51332;SDS011;37417;48.118;11.734;2023-03-23T03:43:09;1.73;;;1.40;;
51332;SDS011;37417;48.118;11.734;2023-03-23T03:45:35;1.38;;;1.25;;
51332;SDS011;37417;48.118;11.734;2023-03-23T03:48:00;3.15;;;1.42;;
51332;SDS011;37417;48.118;11.734;2023-03-23T03:50:26;3.13;;;1.60;;
51332;SDS011;37417;48.118;11.734;2023-03-23T03:52:52;2.10;;;1.25;;
51332;SDS011;37417;48.118;11.734;2023-03-23T03:55:17;1.58;;;1.40;;
51332;SDS011;37417;48.118;11.734;2023-03-23T03:57:43;1.73;;;1.40;;
51332;SDS011;37417;48.118;11.734;2023-03-23T04:00:09;3.08;;;1.85;;
51332;SDS011;37417;48.118;11.734;2023-03-23T04:02:42;1.58;;;1.20;;
51332;SDS011;37417;48.118;11.734;2023-03-23T04:05:09;1.35;;;1.23;;
51332;SDS011;37417;48.118;11.734;2023-03-23T04:07:35;3.28;;;1.83;;
51332;SDS011;37417;48.118;11.734;2023-03-23T04:10:03;2.30;;;1.88;;
51332;SDS011;37417;48.118;11.734;2023-03-23T04:12:30;1.55;;;1.30;;
51332;SDS011;37417;48.118;11.734;2023-03-23T04:14:56;1.92;;;1.48;;
51332;SDS011;37417;48.118;11.734;2023-03-23T04:17:22;4.85;;;1.85;;
51332;SDS011;37417;48.118;11.734;2023-03-23T04:19:51;2.47;;;1.70;;
51332;SDS011;37417;48.118;11.734;2023-03-23T04:22:17;5.28;;;1.60;;
51332;SDS011;37417;48.118;11.734;2023-03-23T04:24:42;1.13;;;1.00;;
51332;SDS011;37417;48.118;11.734;2023-03-23T04:27:07;2.28;;;1.30;;
51332;SDS011;37417;48.118;11.734;2023-03-23T04:29:33;4.30;;;1.25;;
51332;SDS011;37417;48.118;11.734;2023-03-23T04:31:59;3.05;;;1.40;;
51332;SDS011;37417;48.118;11.734;2023-03-23T04:34:26;1.75;;;1.30;;
51332;SDS011;37417;48.118;11.734;2023-03-23T04:36:51;8.75;;;2.08;;
51332;SDS011;37417;48.118;11.734;2023-03-23T04:39:16;3.42;;;1.50;;
51332;SDS011;37417;48.118;11.734;2023-03-23T04:41:42;1.85;;;1.40;;
51332;SDS011;37417;48.118;11.734;2023-03-23T04:44:09;1.90;;;1.30;;
51332;SDS011;37417;48.118;11.734;2023-03-23T04:46:34;2.88;;;1.48;;
51332;SDS011;37417;48.118;11.734;2023-03-23T04:48:59;1.25;;;1.02;;
51332;SDS011;37417;48.118;11.734;2023-03-23T04:51:25;3.45;;;1.67;;
51332;SDS011;37417;48.118;11.734;2023-03-23T04:53:52;2.00;;;1.65;;
51332;SDS011;37417;48.118;11.734;2023-03-23T04:56:18;3.97;;;1.33;;
51332;SDS011;37417;48.118;11.734;2023-03-23T04:58:44;1.75;;;1.58;;
51332;SDS011;37417;48.118;11.734;2023-03-23T05:01:11;1.75;;;1.40;;
51332;SDS011;37417;48.118;11.734;2023-03-23T05:03:39;2.60;;;1.23;;
51332;SDS011;37417;48.118;11.734;2023-03-23T05:06:05;1.90;;;1.52;;
51332;SDS011;37417;48.118;11.734;2023-03-23T05:08:31;5.60;;;1.55;;
51332;SDS011;37417;48.118;11.734;2023-03-23T05:10:58;1.85;;;1.17;;
51332;SDS011;37417;48.118;11.734;2023-03-23T05:13:25;1.88;;;1.63;;
51332;SDS011;37417;48.118;11.734;2023-03-23T05:15:51;1.73;;;1.20;;
51332;SDS011;37417;48.118;11.734;2023-03-23T05:18:17;3.67;;;1.42;;
51332;SDS011;37417;48.118;11.734;2023-03-23T05:20:42;1.80;;;1.17;;
51332;SDS011;37417;48.118;11.734;2023-03-23T05:23:08;5.78;;;1.88;;
51332;SDS011;37417;48.118;11.734;2023-03-23T05:25:37;1.60;;;1.30;;
51332;SDS011;37417;48.118;11.734;2023-03-23T05:28:09;1.27;;;1.08;;
51332;SDS011;37417;48.118;11.734;2023-03-23T05:30:35;3.42;;;1.65;;
51332;SDS011;37417;48.118;11.734;2023-03-23T05:33:02;2.33;;;1.60;;
51332;SDS011;37417;48.118;11.734;2023-03-23T05:35:28;5.70;;;1.70;;
51332;SDS011;37417;48.118;11.734;2023-03-23T05:37:53;6.78;;;1.65;;
51332;SDS011;37417;48.118;11.734;2023-03-23T05:40:19;3.50;;;1.40;;
51332;SDS011;37417;48.118;11.734;2023-03-23T05:42:45;1.33;;;1.23;;
51332;SDS011;37417;48.118;11.734;2023-03-23T05:45:12;1.65;;;1.48;;
51332;SDS011;37417;48.118;11.734;2023-03-23T05:47:38;1.33;;;1.23;;
51332;SDS011;37417;48.118;11.734;2023-03-23T05:50:05;1.75;;;1.17;;
51332;SDS011;37417;48.118;11.734;2023-03-23T05:52:32;3.50;;;1.23;;
51332;SDS011;37417;48.118;11.734;2023-03-23T05:55:00;4.85;;;1.38;;
51332;SDS011;37417;48.118;11.734;2023-03-23T05:57:25;1.27;;;1.17;;
51332;SDS011;37417;48.118;11.734;2023-03-23T05:59:51;5.20;;;1.50;;
51332;SDS011;37417;48.118;11.734;2023-03-23T06:02:17;7.65;;;1.52;;
51332;SDS011;37417;48.118;11.734;2023-03-23T06:04:42;2.75;;;1.27;;
51332;SDS011;37417;48.118;11.734;2023-03-23T06:07:08;2.30;;;1.88;;
51332;SDS011;37417;48.118;11.734;2023-03-23T06:09:38;4.45;;;1.27;;
51332;SDS011;37417;48.118;11.734;2023-03-23T06:12:05;3.63;;;1.83;;
51332;SDS011;37417;48.118;11.734;2023-03-23T06:14:31;4.30;;;1.55;;
51332;SDS011;37417;48.118;11.734;2023-03-23T06:16:57;2.25;;;1.20;;
51332;SDS011;37417;48.118;11.734;2023-03-23T06:19:22;5.10;;;1.30;;
51332;SDS011;37417;48.118;11.734;2023-03-23T06:21:48;1.13;;;1.02;;
51332;SDS011;37417;48.118;11.734;2023-03-23T06:24:14;1.50;;;1.30;;
51332;SDS011;37417;48.118;11.734;2023-03-23T06:26:39;4.68;;;1.55;;
51332;SDS011;37417;48.118;11.734;2023-03-23T06:29:06;2.90;;;1.10;;
51332;SDS011;37417;48.118;11.734;2023-03-23T06:31:35;11.15;;;1.52;;
51332;SDS011;37417;48.118;11.734;2023-03-23T06:34:03;2.28;;;1.02;;
51332;SDS011;37417;48.118;11.734;2023-03-23T06:36:29;1.50;;;1.15;;
51332;SDS011;37417;48.118;11.734;2023-03-23T06:38:54;2.63;;;1.25;;
51332;SDS011;37417;48.118;11.734;2023-03-23T06:41:20;5.25;;;0.95;;
51332;SDS011;37417;48.118;11.734;2023-03-23T06:43:46;2.90;;;1.00;;
51332;SDS011;37417;48.118;11.734;2023-03-23T06:46:12;2.50;;;1.90;;
51332;SDS011;37417;48.118;11.734;2023-03-23T06:48:37;1.60;;;1.05;;
51332;SDS011;37417;48.118;11.734;2023-03-23T06:51:03;5.10;;;1.45;;
51332;SDS011;37417;48.118;11.734;2023-03-23T06:53:29;4.35;;;1.27;;
51332;SDS011;37417;48.118;11.734;2023-03-23T06:55:54;1.55;;;1.00;;
51332;SDS011;37417;48.118;11.734;2023-03-23T06:58:21;4.80;;;1.17;;
51332;SDS011;37417;48.118;11.734;2023-03-23T07:00:47;2.83;;;1.67;;
51332;SDS011;37417;48.118;11.734;2023-03-23T07:03:12;1.95;;;1.20;;
51332;SDS011;37417;48.118;11.734;2023-03-23T07:05:38;1.58;;;1.20;;
51332;SDS011;37417;48.118;11.734;2023-03-23T07:08:03;2.70;;;1.58;;
51332;SDS011;37417;48.118;11.734;2023-03-23T07:10:29;9.25;;;1.92;;
51332;SDS011;37417;48.118;11.734;2023-03-23T07:12:55;6.28;;;2.10;;
51332;SDS011;37417;48.118;11.734;2023-03-23T07:15:21;8.05;;;1.88;;
51332;SDS011;37417;48.118;11.734;2023-03-23T07:17:47;3.15;;;1.27;;
51332;SDS011;37417;48.118;11.734;2023-03-23T07:20:12;4.25;;;1.25;;
51332;SDS011;37417;48.118;11.734;2023-03-23T07:22:38;2.88;;;1.50;;
51332;SDS011;37417;48.118;11.734;2023-03-23T07:25:03;4.07;;;1.67;;
51332;SDS011;37417;48.118;11.734;2023-03-23T07:27:29;3.25;;;1.88;;
51332;SDS011;37417;48.118;11.734;2023-03-23T07:29:55;5.47;;;1.50;;
51332;SDS011;37417;48.118;11.734;2023-03-23T07:32:20;5.90;;;1.67;;
51332;SDS011;37417;48.118;11.734;2023-03-23T07:34:46;4.50;;;1.35;;
51332;SDS011;37417;48.118;11.734;2023-03-23T07:37:12;2.45;;;1.20;;
51332;SDS011;37417;48.118;11.734;2023-03-23T07:39:37;14.18;;;2.45;;
51332;SDS011;37417;48.118;11.734;2023-03-23T07:42:03;7.57;;;1.88;;
51332;SDS011;37417;48.118;11.734;2023-03-23T07:44:28;2.47;;;1.17;;
51332;SDS011;37417;48.118;11.734;2023-03-23T07:46:54;1.75;;;1.33;;
51332;SDS011;37417;48.118;11.734;2023-03-23T07:49:19;4.78;;;1.00;;
51332;SDS011;37417;48.118;11.734;2023-03-23T07:51:45;4.30;;;1.23;;
51332;SDS011;37417;48.118;11.734;2023-03-23T07:54:11;1.10;;;0.98;;
51332;SDS011;37417;48.118;11.734;2023-03-23T07:56:37;1.58;;;0.80;;
51332;SDS011;37417;48.118;11.734;2023-03-23T07:59:05;4.60;;;1.10;;
51332;SDS011;37417;48.118;11.734;2023-03-23T08:01:31;7.85;;;1.38;;
51332;SDS011;37417;48.118;11.734;2023-03-23T08:03:57;4.45;;;1.15;;
51332;SDS011;37417;48.118;11.734;2023-03-23T08:06:22;4.50;;;1.52;;
51332;SDS011;37417;48.118;11.734;2023-03-23T08:08:52;8.38;;;1.27;;
51332;SDS011;37417;48.118;11.734;2023-03-23T08:11:18;3.00;;;1.20;;
51332;SDS011;37417;48.118;11.734;2023-03-23T08:13:45;1.88;;;1.35;;
51332;SDS011;37417;48.118;11.734;2023-03-23T08:16:10;5.05;;;1.20;;
51332;SDS011;37417;48.118;11.734;2023-03-23T08:18:37;2.65;;;1.20;;
51332;SDS011;37417;48.118;11.734;2023-03-23T08:21:04;2.65;;;0.90;;
51332;SDS011;37417;48.118;11.734;2023-03-23T08:23:30;2.42;;;1.20;;
51332;SDS011;37417;48.118;11.734;2023-03-23T08:25:57;2.60;;;1.50;;
51332;SDS011;37417;48.118;11.734;2023-03-23T08:28:23;2.65;;;1.10;;
51332;SDS011;37417;48.118;11.734;2023-03-23T08:30:49;5.85;;;1.50;;
51332;SDS011;37417;48.118;11.734;2023-03-23T08:33:14;3.58;;;1.13;;
51332;SDS011;37417;48.118;11.734;2023-03-23T08:35:40;3.28;;;1.10;;
51332;SDS011;37417;48.118;11.734;2023-03-23T08:38:07;1.05;;;0.95;;
51332;SDS011;37417;48.118;11.734;2023-03-23T08:40:33;2.38;;;0.70;;
51332;SDS011;37417;48.118;11.734;2023-03-23T08:42:58;3.50;;;1.00;;
51332;SDS011;37417;48.118;11.734;2023-03-23T08:45:24;10.18;;;1.30;;
51332;SDS011;37417;48.118;11.734;2023-03-23T08:47:50;2.25;;;1.27;;
51332;SDS011;37417;48.118;11.734;2023-03-23T08:50:18;4.20;;;1.15;;
51332;SDS011;37417;48.118;11.734;2023-03-23T08:52:46;3.33;;;1.05;;
51332;SDS011;37417;48.118;11.734;2023-03-23T08:55:12;3.70;;;1.10;;
51332;SDS011;37417;48.118;11.734;2023-03-23T08:57:38;3.55;;;1.23;;
51332;SDS011;37417;48.118;11.734;2023-03-23T09:00:04;7.63;;;1.20;;
51332;SDS011;37417;48.118;11.734;2023-03-23T09:02:43;4.07;;;1.40;;
51332;SDS011;37417;48.118;11.734;2023-03-23T09:05:16;4.90;;;1.30;;
51332;SDS011;37417;48.118;11.734;2023-03-23T09:07:44;5.70;;;1.13;;
51332;SDS011;37417;48.118;11.734;2023-03-23T09:10:11;2.25;;;1.33;;
51332;SDS011;37417;48.118;11.734;2023-03-23T09:12:38;2.28;;;0.98;;
51332;SDS011;37417;48.118;11.734;2023-03-23T09:15:05;4.20;;;1.30;;
51332;SDS011;37417;48.118;11.734;2023-03-23T09:17:33;4.70;;;1.30;;
51332;SDS011;37417;48.118;11.734;2023-03-23T09:19:59;3.47;;;1.55;;
51332;SDS011;37417;48.118;11.734;2023-03-23T09:22:25;2.35;;;1.25;;
51332;SDS011;37417;48.118;11.734;2023-03-23T09:24:50;1.95;;;1.25;;
51332;SDS011;37417;48.118;11.734;2023-03-23T09:27:16;1.98;;;1.48;;
51332;SDS011;37417;48.118;11.734;2023-03-23T09:29:42;3.30;;;1.20;;
51332;SDS011;37417;48.118;11.734;2023-03-23T09:32:09;3.55;;;1.23;;
51332;SDS011;37417;48.118;11.734;2023-03-23T09:34:35;1.58;;;1.13;;
51332;SDS011;37417;48.118;11.734;2023-03-23T09:37:03;1.77;;;1.30;;
51332;SDS011;37417;48.118;11.734;2023-03-23T09:39:29;2.50;;;1.20;;
51332;SDS011;37417;48.118;11.734;2023-03-23T09:41:59;1.98;;;1.33;;
51332;SDS011;37417;48.118;11.734;2023-03-23T09:49:58;2.13;;;1.42;;
51332;SDS011;37417;48.118;11.734;2023-03-23T09:52:32;7.57;;;1.45;;
51332;SDS011;37417;48.118;11.734;2023-03-23T09:55:16;2.75;;;1.80;;
51332;SDS011;37417;48.118;11.734;2023-03-23T09:58:02;3.47;;;1.38;;
51332;SDS011;37417;48.118;11.734;2023-03-23T10:00:41;3.92;;;1.50;;
51332;SDS011;37417;48.118;11.734;2023-03-23T10:03:38;1.63;;;1.30;;
51332;SDS011;37417;48.118;11.734;2023-03-23T10:06:17;3.75;;;1.33;;
51332;SDS011;37417;48.118;11.734;2023-03-23T10:08:47;3.88;;;1.30;;
51332;SDS011;37417;48.118;11.734;2023-03-23T10:17:20;6.78;;;1.48;;
51332;SDS011;37417;48.118;11.734;2023-03-23T10:22:23;1.88;;;1.20;;
51332;SDS011;37417;48.118;11.734;2023-03-23T10:24:57;5.43;;;1.50;;
51332;SDS011;37417;48.118;11.734;2023-03-23T10:27:33;2.67;;;1.35;;
51332;SDS011;37417;48.118;11.734;2023-03-23T10:30:19;2.97;;;1.67;;
51332;SDS011;37417;48.118;11.734;2023-03-23T10:32:56;5.65;;;2.10;;
51332;SDS011;37417;48.118;11.734;2023-03-23T10:35:28;4.80;;;1.65;;
51332;SDS011;37417;48.118;11.734;2023-03-23T10:38:01;4.50;;;1.75;;
51332;SDS011;37417;48.118;11.734;2023-03-23T10:40:31;3.90;;;1.92;;
51332;SDS011;37417;48.118;11.734;2023-03-23T10:42:58;4.97;;;2.40;;
51332;SDS011;37417;48.118;11.734;2023-03-23T10:45:29;2.35;;;1.73;;
51332;SDS011;37417;48.118;11.734;2023-03-23T10:47:59;2.35;;;2.13;;
51332;SDS011;37417;48.118;11.734;2023-03-23T10:50:30;2.75;;;2.45;;
51332;SDS011;37417;48.118;11.734;2023-03-23T10:52:59;3.78;;;2.45;;
51332;SDS011;37417;48.118;11.734;2023-03-23T10:55:44;4.07;;;2.22;;
51332;SDS011;37417;48.118;11.734;2023-03-23T10:58:29;7.20;;;1.92;;
51332;SDS011;37417;48.118;11.734;2023-03-23T11:00:57;5.82;;;2.13;;
51332;SDS011;37417;48.118;11.734;2023-03-23T11:03:32;3.08;;;2.03;;
51332;SDS011;37417;48.118;11.734;2023-03-23T11:05:59;3.65;;;2.00;;
51332;SDS011;37417;48.118;11.734;2023-03-23T11:08:32;3.08;;;1.75;;
51332;SDS011;37417;48.118;11.734;2023-03-23T11:11:21;3.92;;;1.95;;
51332;SDS011;37417;48.118;11.734;2023-03-23T11:13:56;5.85;;;2.03;;
51332;SDS011;37417;48.118;11.734;2023-03-23T11:16:30;4.03;;;2.30;;
51332;SDS011;37417;48.118;11.734;2023-03-23T11:18:58;3.42;;;2.10;;
51332;SDS011;37417;48.118;11.734;2023-03-23T11:21:25;3.45;;;2.40;;
51332;SDS011;37417;48.118;11.734;2023-03-23T11:23:53;4.22;;;2.22;;
51332;SDS011;37417;48.118;11.734;2023-03-23T11:29:17;5.80;;;2.10;;
51332;SDS011;37417;48.118;11.734;2023-03-23T11:31:44;2.67;;;2.00;;
51332;SDS011;37417;48.118;11.734;2023-03-23T11:36:46;2.45;;;2.25;;
51332;SDS011;37417;48.118;11.734;2023-03-23T11:39:22;4.13;;;2.45;;
51332;SDS011;37417;48.118;11.734;2023-03-23T11:41:50;3.47;;;2.45;;
51332;SDS011;37417;48.118;11.734;2023-03-23T11:44:16;3.35;;;2.17;;
51332;SDS011;37417;48.118;11.734;2023-03-23T11:46:55;3.03;;;2.47;;
51332;SDS011;37417;48.118;11.734;2023-03-23T11:49:45;3.65;;;1.85;;
51332;SDS011;37417;48.118;11.734;2023-03-23T11:52:21;4.45;;;2.25;;
51332;SDS011;37417;48.118;11.734;2023-03-23T11:54:58;2.92;;;1.90;;
51332;SDS011;37417;48.118;11.734;2023-03-23T11:57:32;4.72;;;2.22;;
51332;SDS011;37417;48.118;11.734;2023-03-23T11:59:57;6.95;;;2.58;;
51332;SDS011;37417;48.118;11.734;2023-03-23T12:07:56;2.80;;;2.40;;
51332;SDS011;37417;48.118;11.734;2023-03-23T12:10:34;6.60;;;2.20;;
51332;SDS011;37417;48.118;11.734;2023-03-23T12:15:41;3.33;;;1.95;;
51332;SDS011;37417;48.118;11.734;2023-03-23T12:18:25;6.88;;;2.10;;
51332;SDS011;37417;48.118;11.734;2023-03-23T12:21:10;3.78;;;2.22;;
51332;SDS011;37417;48.118;11.734;2023-03-23T12:23:41;5.20;;;2.45;;
51332;SDS011;37417;48.118;11.734;2023-03-23T12:26:17;6.03;;;3.13;;
51332;SDS011;37417;48.118;11.734;2023-03-23T12:28:59;3.85;;;1.90;;
51332;SDS011;37417;48.118;11.734;2023-03-23T12:31:35;4.53;;;2.25;;
51332;SDS011;37417;48.118;11.734;2023-03-23T12:40:04;4.68;;;2.03;;
51332;SDS011;37417;48.118;11.734;2023-03-23T12:48:27;2.13;;;1.58;;
51332;SDS011;37417;48.118;11.734;2023-03-23T12:51:08;2.90;;;1.60;;
51332;SDS011;37417;48.118;11.734;2023-03-23T12:53:43;4.05;;;2.35;;
51332;SDS011;37417;48.118;11.734;2023-03-23T12:59:13;3.10;;;2.10;;
51332;SDS011;37417;48.118;11.734;2023-03-23T13:01:46;3.33;;;1.75;;
51332;SDS011;37417;48.118;11.734;2023-03-23T13:04:18;8.52;;;2.22;;
51332;SDS011;37417;48.118;11.734;2023-03-23T13:06:56;11.10;;;1.88;;
51332;SDS011;37417;48.118;11.734;2023-03-23T13:09:26;2.92;;;1.67;;
51332;SDS011;37417;48.118;11.734;2023-03-23T13:11:58;8.18;;;1.85;;
51332;SDS011;37417;48.118;11.734;2023-03-23T13:22:42;4.10;;;1.65;;
51332;SDS011;37417;48.118;11.734;2023-03-23T13:25:17;4.45;;;1.30;;
51332;SDS011;37417;48.118;11.734;2023-03-23T13:27:55;6.25;;;1.67;;
51332;SDS011;37417;48.118;11.734;2023-03-23T13:30:22;2.08;;;1.42;;
51332;SDS011;37417;48.118;11.734;2023-03-23T13:32:49;6.00;;;1.23;;
51332;SDS011;37417;48.118;11.734;2023-03-23T13:35:16;3.13;;;1.20;;
51332;SDS011;37417;48.118;11.734;2023-03-23T13:37:46;4.57;;;0.97;;
51332;SDS011;37417;48.118;11.734;2023-03-23T13:40:17;1.67;;;1.17;;
51332;SDS011;37417;48.118;11.734;2023-03-23T13:42:51;6.10;;;1.10;;
51332;SDS011;37417;48.118;11.734;2023-03-23T13:48:02;9.55;;;1.40;;
51332;SDS011;37417;48.118;11.734;2023-03-23T13:50:30;5.63;;;1.20;;
51332;SDS011;37417;48.118;11.734;2023-03-23T13:53:12;9.43;;;1.05;;
51332;SDS011;37417;48.118;11.734;2023-03-23T13:55:41;2.05;;;0.98;;
51332;SDS011;37417;48.118;11.734;2023-03-23T13:58:20;2.00;;;0.85;;
51332;SDS011;37417;48.118;11.734;2023-03-23T14:00:49;2.65;;;1.08;;
51332;SDS011;37417;48.118;11.734;2023-03-23T14:03:36;5.60;;;1.17;;
51332;SDS011;37417;48.118;11.734;2023-03-23T14:06:07;1.38;;;0.82;;
51332;SDS011;37417;48.118;11.734;2023-03-23T14:08:40;1.25;;;1.15;;
51332;SDS011;37417;48.118;11.734;2023-03-23T14:11:12;3.50;;;1.23;;
51332;SDS011;37417;48.118;11.734;2023-03-23T14:16:32;5.80;;;1.45;;
51332;SDS011;37417;48.118;11.734;2023-03-23T14:19:03;1.52;;;0.93;;
51332;SDS011;37417;48.118;11.734;2023-03-23T14:21:39;3.25;;;0.90;;
51332;SDS011;37417;48.118;11.734;2023-03-23T14:24:16;2.67;;;1.13;;
51332;SDS011;37417;48.118;11.734;2023-03-23T14:26:44;5.15;;;1.40;;
51332;SDS011;37417;48.118;11.734;2023-03-23T14:29:11;1.60;;;0.93;;
51332;SDS011;37417;48.118;11.734;2023-03-23T14:31:38;1.83;;;1.00;;
51332;SDS011;37417;48.118;11.734;2023-03-23T14:34:15;2.42;;;1.17;;
51332;SDS011;37417;48.118;11.734;2023-03-23T14:36:44;3.60;;;0.95;;
51332;SDS011;37417;48.118;11.734;2023-03-23T14:41:56;2.15;;;1.08;;
51332;SDS011;37417;48.118;11.734;2023-03-23T14:44:29;2.70;;;1.30;;
51332;SDS011;37417;48.118;11.734;2023-03-23T14:46:58;4.85;;;1.40;;
51332;SDS011;37417;48.118;11.734;2023-03-23T14:49:29;2.28;;;0.90;;
51332;SDS011;37417;48.118;11.734;2023-03-23T14:52:02;4.68;;;1.40;;
51332;SDS011;37417;48.118;11.734;2023-03-23T14:54:35;5.35;;;0.90;;
51332;SDS011;37417;48.118;11.734;2023-03-23T14:57:17;1.38;;;0.93;;
51332;SDS011;37417;48.118;11.734;2023-03-23T14:59:53;0.70;;;0.70;;
51332;SDS011;37417;48.118;11.734;2023-03-23T15:02:27;1.10;;;1.00;;
51332;SDS011;37417;48.118;11.734;2023-03-23T15:04:57;1.67;;;1.08;;
51332;SDS011;37417;48.118;11.734;2023-03-23T15:07:29;6.38;;;1.10;;
51332;SDS011;37417;48.118;11.734;2023-03-23T15:09:58;4.38;;;1.40;;
51332;SDS011;37417;48.118;11.734;2023-03-23T15:12:28;10.70;;;1.10;;
51332;SDS011;37417;48.118;11.734;2023-03-23T15:14:57;1.80;;;1.10;;
51332;SDS011;37417;48.118;11.734;2023-03-23T15:17:26;7.88;;;1.38;;
51332;SDS011;37417;48.118;11.734;2023-03-23T15:19:56;2.08;;;1.30;;
51332;SDS011;37417;48.118;11.734;2023-03-23T15:22:27;4.85;;;1.10;;
51332;SDS011;37417;48.118;11.734;2023-03-23T15:27:39;2.35;;;0.90;;
51332;SDS011;37417;48.118;11.734;2023-03-23T15:32:52;2.78;;;1.00;;
51332;SDS011;37417;48.118;11.734;2023-03-23T15:35:21;2.85;;;1.50;;
51332;SDS011;37417;48.118;11.734;2023-03-23T15:37:58;5.68;;;1.10;;
51332;SDS011;37417;48.118;11.734;2023-03-23T15:40:26;3.35;;;1.02;;
51332;SDS011;37417;48.118;11.734;2023-03-23T15:43:06;2.22;;;1.25;;
51332;SDS011;37417;48.118;11.734;2023-03-23T15:45:32;4.28;;;1.20;;
51332;SDS011;37417;48.118;11.734;2023-03-23T15:48:04;1.60;;;1.02;;
51332;SDS011;37417;48.118;11.734;2023-03-23T15:50:36;1.10;;;1.00;;
51332;SDS011;37417;48.118;11.734;2023-03-23T15:53:07;3.38;;;1.17;;
51332;SDS011;37417;48.118;11.734;2023-03-23T15:56:00;3.70;;;1.10;;
51332;SDS011;37417;48.118;11.734;2023-03-23T15:58:27;4.78;;;1.15;;
51332;SDS011;37417;48.118;11.734;2023-03-23T16:00:53;2.00;;;0.98;;
51332;SDS011;37417;48.118;11.734;2023-03-23T16:03:21;2.05;;;0.85;;
51332;SDS011;37417;48.118;11.734;2023-03-23T16:05:55;1.88;;;1.10;;
51332;SDS011;37417;48.118;11.734;2023-03-23T16:08:23;1.48;;;0.88;;
51332;SDS011;37417;48.118;11.734;2023-03-23T16:10:49;2.72;;;1.10;;